Time;durP1;ratioP1;P1;durP2;ratioP2;P2;SDS_P1;SDS_P2;PMS_P1;PMS_P2;Temp;Humidity;BMP_temperature;BMP_pressure;BME280_temperature;BME280_humidity;BME280_pressure;Samples;Min_cycle;Max_cycle;Signal;HPM_P1;HPM_P2
2023/10/16 00:00:47;;;;;;;3.72;0.68;;;;;;;8.07;nan;100259.06;2081281;28;20045;-76
2023/10/16 00:01:49;;;;;;;2.05;0.70;;;;;;;8.07;nan;100250.22;2077197;28;20034;-76
2023/10/16 00:02:56;;;;;;;3.10;0.70;;;;;;;8.09;nan;100254.22;2081229;28;20978;-75
2023/10/16 00:03:58;;;;;;;1.80;0.55;;;;;;;8.12;nan;100256.38;2082201;28;20021;-76
2023/10/16 00:05:08;;;;;;;2.85;1.05;;;;;;;8.09;nan;100259.59;2081954;28;20096;-76
2023/10/16 00:06:14;;;;;;;3.30;0.52;;;;;;;8.02;nan;100253.72;2081686;28;20022;-75
2023/10/16 00:07:23;;;;;;;4.88;0.80;;;;;;;8.01;nan;100246.75;2090501;28;20041;-76
2023/10/16 00:08:25;;;;;;;4.85;0.70;;;;;;;8.02;nan;100251.03;2072903;28;20126;-76
2023/10/16 00:09:28;;;;;;;2.20;0.73;;;;;;;8.00;nan;100255.84;2065770;28;20027;-76
2023/10/16 00:10:30;;;;;;;4.43;0.70;;;;;;;8.00;nan;100247.81;2073584;28;20030;-76
2023/10/16 00:11:32;;;;;;;3.88;0.50;;;;;;;8.00;nan;100249.69;2073696;28;20058;-75
2023/10/16 00:12:36;;;;;;;4.18;0.60;;;;;;;7.99;nan;100250.78;2073290;28;20038;-76
2023/10/16 00:13:39;;;;;;;6.97;0.93;;;;;;;8.01;nan;100257.47;2081475;28;20257;-76
2023/10/16 00:14:41;;;;;;;1.73;0.63;;;;;;;8.03;nan;100259.88;2088935;28;20044;-75
2023/10/16 00:15:49;;;;;;;3.70;0.93;;;;;;;7.99;nan;100264.97;2073176;28;20299;-76
2023/10/16 00:16:50;;;;;;;3.92;0.70;;;;;;;7.98;nan;100260.69;2082025;28;20037;-76
2023/10/16 00:17:56;;;;;;;1.50;0.57;;;;;;;7.98;nan;100260.69;2081196;28;20152;-76
2023/10/16 00:18:59;;;;;;;1.63;0.57;;;;;;;7.99;nan;100259.59;2066474;28;20842;-76
2023/10/16 00:20:01;;;;;;;1.55;0.50;;;;;;;7.98;nan;100266.03;2082939;28;20862;-76
2023/10/16 00:21:05;;;;;;;5.43;0.80;;;;;;;8.00;nan;100266.56;2080211;28;20034;-76
2023/10/16 00:22:15;;;;;;;2.10;0.80;;;;;;;8.01;nan;100262.03;2090469;28;20061;-76
2023/10/16 00:23:24;;;;;;;6.78;0.93;;;;;;;7.97;nan;100261.72;2096001;28;20052;-76
2023/10/16 00:24:25;;;;;;;5.70;0.70;;;;;;;7.80;nan;100239.81;2098431;28;20033;-76
2023/10/16 00:25:30;;;;;;;5.03;0.93;;;;;;;7.92;nan;100267.09;2088911;28;20792;-75
2023/10/16 00:26:32;;;;;;;2.28;0.70;;;;;;;7.92;nan;100259.06;2074211;28;20034;-75
2023/10/16 00:27:34;;;;;;;3.45;0.60;;;;;;;7.86;nan;100260.16;2098040;28;20814;-75
2023/10/16 00:28:36;;;;;;;3.45;0.70;;;;;;;7.87;nan;100264.41;2081051;28;20025;-76
2023/10/16 00:29:41;;;;;;;3.40;0.80;;;;;;;7.89;nan;100264.97;2065639;28;20035;-77
2023/10/16 00:30:46;;;;;;;1.15;0.43;;;;;;;7.91;nan;100262.81;2081760;28;20156;-77
2023/10/16 00:31:51;;;;;;;2.80;0.50;;;;;;;7.90;nan;100256.66;2080848;28;20026;-77
2023/10/16 00:32:53;;;;;;;3.17;0.77;;;;;;;7.96;nan;100260.13;2089999;28;20024;-77
2023/10/16 00:33:54;;;;;;;3.35;0.70;;;;;;;7.98;nan;100258.00;2073067;28;20093;-77
2023/10/16 00:35:01;;;;;;;4.00;0.60;;;;;;;8.02;nan;100263.63;2083623;28;20038;-77
2023/10/16 00:36:05;;;;;;;2.97;0.63;;;;;;;8.04;nan;100261.47;2087685;28;20780;-77
2023/10/16 00:37:10;;;;;;;1.42;0.47;;;;;;;8.03;nan;100259.88;2073198;28;20037;-77
2023/10/16 00:38:13;;;;;;;2.72;0.70;;;;;;;8.05;nan;100253.19;2066091;28;20762;-76
2023/10/16 00:39:19;;;;;;;4.15;0.85;;;;;;;8.00;nan;100253.16;2073725;28;20034;-77
2023/10/16 00:40:33;;;;;;;1.88;0.50;;;;;;;8.00;nan;100253.16;2065711;28;20081;-78
2023/10/16 00:41:35;;;;;;;4.30;0.77;;;;;;;8.01;nan;100251.31;2076499;28;20865;-76
2023/10/16 00:42:43;;;;;;;1.80;0.80;;;;;;;7.99;nan;100248.88;2080499;28;20022;-76
2023/10/16 00:43:45;;;;;;;1.63;0.60;;;;;;;8.01;nan;100251.31;2073194;28;20034;-76
2023/10/16 00:44:48;;;;;;;2.33;0.50;;;;;;;8.01;nan;100252.13;2056551;28;20158;-76
2023/10/16 00:46:10;;;;;;;3.63;0.80;;;;;;;8.03;nan;100249.94;2073137;28;20157;-76
2023/10/16 00:47:15;;;;;;;2.85;0.75;;;;;;;8.04;nan;100254.25;2084204;28;20079;-76
2023/10/16 00:48:17;;;;;;;1.42;0.45;;;;;;;8.04;nan;100262.28;2072954;28;20084;-76
2023/10/16 00:49:19;;;;;;;5.88;0.75;;;;;;;8.04;nan;100256.09;2081256;28;20166;-76
2023/10/16 00:50:23;;;;;;;1.10;0.40;;;;;;;8.03;nan;100251.84;2093097;28;20068;-76
2023/10/16 00:51:24;;;;;;;3.53;0.47;;;;;;;8.02;nan;100255.59;2096914;28;20115;-75
2023/10/16 00:52:28;;;;;;;3.40;0.57;;;;;;;8.03;nan;100254.50;2081361;28;20800;-75
2023/10/16 00:53:31;;;;;;;1.85;0.70;;;;;;;8.05;nan;100258.53;2073792;28;20045;-76
2023/10/16 00:54:39;;;;;;;3.13;0.60;;;;;;;8.07;nan;100261.75;2064755;28;20105;-75
2023/10/16 00:55:41;;;;;;;2.33;0.77;;;;;;;8.11;nan;100268.16;2075816;28;20030;-76
2023/10/16 00:57:08;;;;;;;7.70;0.90;;;;;;;8.08;nan;100268.69;2089389;28;20769;-75
2023/10/16 00:58:10;;;;;;;1.10;0.50;;;;;;;8.06;nan;100276.19;2091831;28;20083;-75
2023/10/16 00:59:16;;;;;;;3.78;0.50;;;;;;;8.08;nan;100268.69;2089029;28;20089;-75
2023/10/16 01:00:18;;;;;;;3.35;1.38;;;;;;;8.08;nan;100268.69;2081804;28;20029;-75
2023/10/16 01:01:20;;;;;;;2.50;0.70;;;;;;;8.08;nan;100267.91;2065031;28;20043;-76
2023/10/16 01:02:30;;;;;;;3.83;0.60;;;;;;;8.05;nan;100269.25;2056826;28;20110;-76
2023/10/16 01:03:36;;;;;;;4.03;0.32;;;;;;;8.04;nan;100275.69;2076382;28;20031;-76
2023/10/16 01:04:37;;;;;;;3.20;1.15;;;;;;;8.04;nan;100278.34;2082053;28;20080;-76
2023/10/16 01:05:42;;;;;;;4.25;0.68;;;;;;;8.02;nan;100274.34;2073438;28;20039;-77
2023/10/16 01:06:46;;;;;;;2.65;0.50;;;;;;;8.01;nan;100276.22;2078422;28;20049;-76
2023/10/16 01:07:48;;;;;;;2.35;0.77;;;;;;;8.00;nan;100279.94;2074442;28;20969;-76
2023/10/16 01:08:50;;;;;;;4.00;0.73;;;;;;;7.99;nan;100283.69;2074624;28;20042;-76
2023/10/16 01:09:52;;;;;;;5.22;1.00;;;;;;;7.98;nan;100282.09;2074454;28;20072;-76
2023/10/16 01:10:59;;;;;;;2.13;0.85;;;;;;;7.95;nan;100285.31;2074103;28;20037;-76
2023/10/16 01:12:06;;;;;;;2.70;1.00;;;;;;;7.92;nan;100288.53;2076136;28;20837;-76
2023/10/16 01:13:12;;;;;;;1.73;0.80;;;;;;;7.92;nan;100296.56;2074800;28;20222;-76
2023/10/16 01:14:16;;;;;;;3.17;0.80;;;;;;;7.89;nan;100297.88;2083995;28;20022;-76
2023/10/16 01:15:22;;;;;;;3.05;0.80;;;;;;;7.86;nan;100289.59;2082488;28;20160;-76
2023/10/16 01:16:25;;;;;;;3.92;0.80;;;;;;;7.85;nan;100290.66;2075467;28;20100;-76
2023/10/16 01:17:29;;;;;;;1.83;0.73;;;;;;;7.84;nan;100299.75;2074280;28;21139;-76
2023/10/16 01:18:34;;;;;;;2.85;0.73;;;;;;;7.78;nan;100298.13;2076437;28;20029;-77
2023/10/16 01:19:42;;;;;;;1.73;0.73;;;;;;;7.74;nan;100295.19;2090660;28;20045;-75
2023/10/16 01:20:48;;;;;;;4.00;0.82;;;;;;;7.71;nan;100303.75;2090381;28;20177;-75
2023/10/16 01:21:53;;;;;;;3.55;0.90;;;;;;;7.70;nan;100304.03;2089941;28;20315;-75
2023/10/16 01:22:56;;;;;;;3.53;0.93;;;;;;;7.63;nan;100299.72;2082405;28;20926;-76
2023/10/16 01:24:21;;;;;;;4.60;0.80;;;;;;;7.63;nan;100306.97;2084422;28;20104;-76
2023/10/16 01:25:24;;;;;;;3.65;0.98;;;;;;;7.61;nan;100299.19;2098636;28;20147;-76
2023/10/16 01:26:26;;;;;;;4.18;1.10;;;;;;;7.58;nan;100302.38;2090895;28;20103;-75
2023/10/16 01:27:29;;;;;;;4.97;1.40;;;;;;;7.54;nan;100295.97;2090694;28;20287;-76
2023/10/16 01:28:32;;;;;;;2.08;1.10;;;;;;;7.56;nan;100304.50;2091007;28;20080;-76
2023/10/16 01:29:34;;;;;;;4.45;0.82;;;;;;;7.57;nan;100300.78;2082234;28;20171;-77
2023/10/16 01:30:40;;;;;;;2.47;0.90;;;;;;;7.59;nan;100298.63;2091585;28;20076;-76
2023/10/16 01:31:47;;;;;;;3.50;0.70;;;;;;;7.63;nan;100299.72;2099059;28;20253;-75
2023/10/16 01:33:04;;;;;;;5.85;0.65;;;;;;;7.60;nan;100305.63;2084526;28;20037;-75
2023/10/16 01:34:13;;;;;;;4.75;1.27;;;;;;;7.54;nan;100295.97;2082662;28;20061;-75
2023/10/16 01:35:14;;;;;;;4.70;1.10;;;;;;;7.57;nan;100310.69;2092691;28;20033;-75
2023/10/16 01:36:19;;;;;;;5.20;0.90;;;;;;;7.57;nan;100306.13;2098860;28;20967;-75
2023/10/16 01:37:21;;;;;;;1.85;0.60;;;;;;;7.60;nan;100305.63;2074254;28;20029;-74
2023/10/16 01:38:24;;;;;;;3.15;0.88;;;;;;;7.63;nan;100317.66;2074015;28;20026;-76
2023/10/16 01:41:08;;;;;;;2.95;0.80;;;;;;;7.70;nan;100328.91;2098769;28;20028;-75
2023/10/16 01:42:11;;;;;;;2.53;0.70;;;;;;;7.69;nan;100339.88;2087309;28;20230;-76
2023/10/16 01:43:13;;;;;;;1.80;0.75;;;;;;;7.68;nan;100323.00;2091062;28;20033;-75
2023/10/16 01:44:18;;;;;;;1.92;0.52;;;;;;;7.63;nan;100337.19;2082373;28;20033;-76
2023/10/16 01:45:20;;;;;;;3.70;0.90;;;;;;;7.60;nan;100339.59;2083069;28;20069;-75
2023/10/16 01:46:21;;;;;;;3.53;0.75;;;;;;;7.63;nan;100347.09;2090612;28;20295;-75
2023/10/16 01:47:23;;;;;;;2.67;0.70;;;;;;;7.61;nan;100357.25;2074049;28;20069;-75
2023/10/16 01:48:29;;;;;;;2.00;0.60;;;;;;;7.53;nan;100352.41;2066762;28;20072;-75
2023/10/16 01:49:33;;;;;;;3.95;0.98;;;;;;;7.43;nan;100361.19;2075707;28;21056;-75
2023/10/16 01:50:40;;;;;;;2.20;0.80;;;;;;;7.42;nan;100359.59;2095210;28;20033;-75
2023/10/16 01:51:44;;;;;;;1.70;0.50;;;;;;;7.39;nan;100368.16;2081413;28;20861;-77
2023/10/16 01:52:49;;;;;;;3.65;0.60;;;;;;;7.35;nan;100356.38;2084308;28;20132;-77
2023/10/16 01:53:51;;;;;;;1.63;0.40;;;;;;;7.34;nan;100354.75;2090638;28;20033;-75
2023/10/16 01:54:53;;;;;;;1.48;0.50;;;;;;;7.36;nan;100363.31;2074124;28;20082;-76
2023/10/16 01:55:55;;;;;;;2.72;0.40;;;;;;;7.32;nan;100363.03;2074545;28;20082;-75
2023/10/16 01:56:59;;;;;;;1.65;0.47;;;;;;;7.31;nan;100361.41;2090929;28;20017;-76
2023/10/16 01:58:04;;;;;;;4.18;1.02;;;;;;;7.31;nan;100373.97;2091206;28;20021;-75
2023/10/16 01:59:06;;;;;;;1.60;0.40;;;;;;;7.28;nan;100371.81;2098763;28;20291;-75
2023/10/16 02:00:16;;;;;;;2.65;0.40;;;;;;;7.34;nan;100381.47;2099129;28;20124;-75
2023/10/16 02:01:20;;;;;;;1.60;0.38;;;;;;;7.37;nan;100381.75;2098968;28;20047;-76
2023/10/16 02:02:24;;;;;;;1.23;0.40;;;;;;;7.36;nan;100384.72;2090312;28;20040;-76
2023/10/16 02:03:26;;;;;;;0.85;0.30;;;;;;;7.39;nan;100384.19;2082319;28;20018;-75
2023/10/16 02:04:31;;;;;;;0.95;0.30;;;;;;;7.38;nan;100391.41;2098663;28;20862;-76
2023/10/16 02:05:34;;;;;;;0.98;0.30;;;;;;;7.35;nan;100391.94;2081983;28;20128;-75
2023/10/16 02:06:39;;;;;;;1.55;0.40;;;;;;;7.39;nan;100390.34;2075318;28;20049;-75
2023/10/16 02:07:42;;;;;;;0.77;0.20;;;;;;;7.41;nan;100385.53;2097582;28;20033;-75
2023/10/16 02:08:47;;;;;;;2.60;0.32;;;;;;;7.45;nan;100377.00;2082347;28;20041;-75
2023/10/16 02:09:52;;;;;;;2.55;0.38;;;;;;;7.46;nan;100363.34;2076788;28;20149;-76
2023/10/16 02:10:54;;;;;;;3.05;0.70;;;;;;;7.54;nan;100386.94;2098304;28;20044;-76
2023/10/16 02:12:02;;;;;;;1.38;0.30;;;;;;;7.62;nan;100372.22;2083216;28;20041;-75
2023/10/16 02:13:04;;;;;;;3.63;0.43;;;;;;;7.71;nan;100364.50;2083768;28;20041;-75
2023/10/16 02:14:09;;;;;;;0.80;0.38;;;;;;;7.77;nan;100355.41;2082585;28;20029;-76
2023/10/16 02:15:14;;;;;;;1.42;0.57;;;;;;;7.74;nan;100340.69;2083426;28;20738;-75
2023/10/16 02:16:18;;;;;;;5.53;1.70;;;;;;;7.73;nan;100335.59;2091266;28;20032;-76
2023/10/16 02:17:23;;;;;;;3.97;1.80;;;;;;;7.80;nan;100336.94;2082687;28;20034;-76
2023/10/16 02:18:27;;;;;;;3.30;1.80;;;;;;;7.86;nan;100337.78;2074572;28;20741;-74
2023/10/16 02:19:31;;;;;;;4.25;1.55;;;;;;;7.91;nan;100335.06;2083612;28;20041;-77
2023/10/16 02:20:36;;;;;;;5.85;1.90;;;;;;;7.97;nan;100330.53;2073485;28;20023;-77
2023/10/16 02:21:40;;;;;;;4.00;2.03;;;;;;;8.05;nan;100348.78;2067530;28;20149;-77
2023/10/16 02:22:46;;;;;;;2.95;1.30;;;;;;;8.10;nan;100362.13;2083247;28;20038;-77
2023/10/16 02:23:50;;;;;;;7.22;1.33;;;;;;;8.14;nan;100373.94;2090275;28;21098;-76
2023/10/16 02:24:55;;;;;;;2.35;0.60;;;;;;;8.17;nan;100375.28;2074479;28;20897;-76
2023/10/16 02:25:59;;;;;;;1.58;0.50;;;;;;;8.17;nan;100377.97;2066226;28;20862;-76
2023/10/16 02:27:02;;;;;;;3.20;0.55;;;;;;;8.19;nan;100379.28;2082786;28;20030;-77
2023/10/16 02:28:13;;;;;;;2.28;0.80;;;;;;;8.19;nan;100383.84;2074207;28;20038;-76
2023/10/16 02:29:15;;;;;;;1.45;0.55;;;;;;;8.25;nan;100386.25;2060485;28;20145;-76
2023/10/16 02:31:25;;;;;;;0.65;0.40;;;;;;;8.30;nan;100394.31;2083288;28;20018;-76
2023/10/16 02:32:29;;;;;;;0.88;0.40;;;;;;;8.31;nan;100397.78;2082211;28;20116;-76
2023/10/16 02:33:35;;;;;;;0.85;0.57;;;;;;;8.34;nan;100391.91;2073793;28;20034;-76
2023/10/16 02:34:41;;;;;;;1.23;0.40;;;;;;;8.32;nan;100392.19;2084082;28;20033;-77
2023/10/16 02:35:42;;;;;;;1.08;0.30;;;;;;;8.32;nan;100389.50;2090568;28;20149;-77
2023/10/16 02:36:47;;;;;;;1.60;0.40;;;;;;;8.32;nan;100386.81;2081959;28;20026;-76
2023/10/16 02:37:57;;;;;;;3.35;0.50;;;;;;;8.32;nan;100386.00;2080603;28;20045;-78
2023/10/16 02:38:59;;;;;;;1.40;0.50;;;;;;;8.33;nan;100385.75;2084230;28;20805;-79
2023/10/16 02:40:08;;;;;;;2.78;0.35;;;;;;;8.33;nan;100387.63;2090339;28;20132;-76
2023/10/16 02:41:09;;;;;;;1.02;0.40;;;;;;;8.33;nan;100399.13;2090946;28;20037;-77
2023/10/16 02:42:12;;;;;;;0.85;0.45;;;;;;;8.34;nan;100403.41;2090636;28;20033;-77
2023/10/16 02:43:18;;;;;;;1.77;0.43;;;;;;;8.31;nan;100416.53;2098601;28;20734;-77
2023/10/16 02:44:22;;;;;;;1.48;0.40;;;;;;;8.28;nan;100423.22;2090409;28;20032;-77
2023/10/16 02:45:26;;;;;;;0.73;0.40;;;;;;;8.28;nan;100425.09;2090939;28;20793;-78
2023/10/16 02:46:28;;;;;;;1.67;0.60;;;;;;;8.30;nan;100437.16;2090423;28;20869;-77
2023/10/16 02:47:32;;;;;;;1.20;0.35;;;;;;;8.29;nan;100446.28;2090163;28;20033;-76
2023/10/16 02:48:33;;;;;;;1.05;0.47;;;;;;;8.32;nan;100440.41;2074233;28;20073;-77
2023/10/16 02:49:36;;;;;;;0.75;0.32;;;;;;;8.35;nan;100445.22;2065836;28;20822;-78
2023/10/16 02:50:41;;;;;;;1.60;0.40;;;;;;;8.39;nan;100452.75;2074098;28;20054;-79
2023/10/16 02:51:43;;;;;;;0.85;0.40;;;;;;;8.36;nan;100452.19;2090625;28;20033;-79
2023/10/16 02:52:47;;;;;;;1.88;0.57;;;;;;;8.34;nan;100448.94;2076094;28;20042;-79
2023/10/16 02:53:51;;;;;;;2.17;0.35;;;;;;;8.31;nan;100454.84;2066563;28;20881;-80
2023/10/16 02:54:56;;;;;;;2.05;0.32;;;;;;;8.32;nan;100450.28;2067122;28;20085;-79
2023/10/16 02:56:05;;;;;;;3.40;0.40;;;;;;;8.31;nan;100457.53;2074059;28;20038;-80
2023/10/16 02:57:07;;;;;;;1.20;0.40;;;;;;;8.33;nan;100447.34;2083187;28;20026;-77
2023/10/16 02:58:11;;;;;;;1.15;0.32;;;;;;;8.33;nan;100446.56;2081975;28;20033;-76
2023/10/16 02:59:13;;;;;;;1.52;0.68;;;;;;;8.35;nan;100449.75;2081998;28;20030;-77
2023/10/16 03:00:24;;;;;;;1.95;0.50;;;;;;;8.36;nan;100446.03;2082306;28;20877;-77
2023/10/16 03:01:31;;;;;;;3.13;0.40;;;;;;;8.34;nan;100448.16;2088137;28;20061;-78
2023/10/16 03:02:34;;;;;;;1.05;0.40;;;;;;;8.35;nan;100449.75;2082927;28;20096;-82
2023/10/16 03:03:37;;;;;;;1.42;0.40;;;;;;;8.35;nan;100452.44;2095504;28;20029;-83
2023/10/16 03:04:51;;;;;;;1.60;0.38;;;;;;;8.36;nan;100446.03;2097669;28;20852;-83
2023/10/16 03:05:55;;;;;;;2.38;0.40;;;;;;;8.38;nan;100443.91;2097849;28;20041;-83
2023/10/16 03:07:00;;;;;;;1.25;0.52;;;;;;;8.42;nan;100452.19;2089727;28;21003;-80
2023/10/16 03:08:08;;;;;;;2.40;0.55;;;;;;;8.40;nan;100443.66;2088724;28;20052;-79
2023/10/16 03:09:25;;;;;;;1.00;0.50;;;;;;;8.39;nan;100434.81;2081972;28;20872;-79
2023/10/16 03:10:40;;;;;;;1.40;0.57;;;;;;;8.42;nan;100430.75;2086881;28;20052;-78
2023/10/16 03:11:42;;;;;;;4.85;0.55;;;;;;;8.45;nan;100432.91;2081160;28;20030;-77
2023/10/16 03:12:49;;;;;;;1.58;0.47;;;;;;;8.43;nan;100425.16;2081956;28;20889;-77
2023/10/16 03:13:51;;;;;;;1.58;0.20;;;;;;;8.42;nan;100428.09;2090106;28;20022;-77
2023/10/16 03:15:01;;;;;;;4.78;0.93;;;;;;;8.42;nan;100423.56;2089017;28;20052;-76
2023/10/16 03:16:23;;;;;;;1.25;0.52;;;;;;;8.43;nan;100419.78;2082538;28;20033;-77
2023/10/16 03:18:32;;;;;;;1.27;0.30;;;;;;;8.42;nan;100410.16;2090234;28;20040;-76
2023/10/16 03:19:35;;;;;;;1.20;0.38;;;;;;;8.40;nan;100414.16;2098014;28;20901;-78
2023/10/16 03:20:37;;;;;;;2.75;0.50;;;;;;;8.36;nan;100408.53;2088427;28;20042;-78
2023/10/16 03:21:40;;;;;;;3.08;0.50;;;;;;;8.39;nan;100402.66;2073799;28;20066;-78
2023/10/16 03:22:42;;;;;;;1.17;0.20;;;;;;;8.44;nan;100405.31;2077946;28;20740;-78
2023/10/16 03:23:46;;;;;;;1.00;0.25;;;;;;;8.51;nan;100405.06;2083038;28;20108;-77
2023/10/16 03:24:51;;;;;;;1.50;0.45;;;;;;;8.50;nan;100403.44;2090118;28;20029;-77
2023/10/16 03:25:54;;;;;;;1.58;0.50;;;;;;;8.48;nan;100403.72;2098320;28;20029;-77
2023/10/16 03:26:57;;;;;;;4.22;0.55;;;;;;;8.50;nan;100406.13;2097761;28;20063;-77
2023/10/16 03:28:00;;;;;;;1.35;0.50;;;;;;;8.52;nan;100412.03;2090799;28;20973;-78
2023/10/16 03:29:02;;;;;;;3.28;0.60;;;;;;;8.52;nan;100412.84;2089130;28;20061;-78
2023/10/16 03:30:07;;;;;;;1.52;0.70;;;;;;;8.50;nan;100401.56;2081951;28;20030;-77
2023/10/16 03:31:08;;;;;;;1.30;0.50;;;;;;;8.51;nan;100415.75;2082261;28;20857;-78
2023/10/16 03:32:13;;;;;;;2.42;0.50;;;;;;;8.50;nan;100414.16;2089960;28;21111;-78
2023/10/16 03:33:15;;;;;;;2.67;0.50;;;;;;;8.46;nan;100413.09;2089821;28;20029;-79
2023/10/16 03:34:17;;;;;;;2.08;0.55;;;;;;;8.43;nan;100419.78;2082214;28;20156;-79
2023/10/16 03:35:22;;;;;;;0.95;0.57;;;;;;;8.41;nan;100411.22;2073237;28;20098;-78
2023/10/16 03:36:24;;;;;;;1.50;0.63;;;;;;;8.38;nan;100417.09;2074498;28;21063;-78
2023/10/16 03:37:26;;;;;;;1.27;0.40;;;;;;;8.35;nan;100412.25;2089511;28;20045;-79
2023/10/16 03:38:37;;;;;;;0.85;0.47;;;;;;;8.30;nan;100409.59;2088874;28;20769;-81
2023/10/16 03:39:39;;;;;;;0.77;0.40;;;;;;;8.24;nan;100406.09;2091374;28;20029;-79
2023/10/16 03:40:43;;;;;;;0.73;0.60;;;;;;;8.24;nan;100407.97;2089775;28;21024;-78
2023/10/16 03:41:48;;;;;;;5.25;0.68;;;;;;;8.23;nan;100409.03;2082262;28;20820;-75
2023/10/16 03:42:50;;;;;;;1.52;0.60;;;;;;;8.23;nan;100417.88;2074552;28;20223;-74
2023/10/16 03:44:13;;;;;;;0.95;0.60;;;;;;;8.20;nan;100418.41;2090245;28;20032;-75
2023/10/16 03:45:21;;;;;;;1.30;0.63;;;;;;;8.15;nan;100417.59;2092969;28;20040;-75
2023/10/16 03:46:28;;;;;;;1.42;0.60;;;;;;;8.07;nan;100414.38;2098281;28;20094;-74
2023/10/16 03:47:32;;;;;;;2.55;1.10;;;;;;;8.07;nan;100421.59;2081284;28;20041;-76
2023/10/16 03:48:35;;;;;;;0.98;0.60;;;;;;;8.07;nan;100427.75;2074588;28;20525;-75
2023/10/16 03:49:36;;;;;;;3.60;0.63;;;;;;;8.03;nan;100429.34;2089981;28;20037;-74
2023/10/16 03:50:42;;;;;;;1.58;0.70;;;;;;;7.98;nan;100431.22;2093373;28;20124;-77
2023/10/16 03:51:48;;;;;;;0.93;0.60;;;;;;;7.95;nan;100432.56;2082452;28;20141;-73
2023/10/16 03:52:55;;;;;;;1.30;0.70;;;;;;;7.95;nan;100437.09;2072263;28;20280;-74
2023/10/16 03:53:58;;;;;;;2.42;0.80;;;;;;;7.92;nan;100437.63;2075021;28;20046;-74
2023/10/16 03:55:22;;;;;;;1.67;0.50;;;;;;;7.91;nan;100428.78;2090366;28;20037;-75
2023/10/16 03:56:24;;;;;;;1.13;0.60;;;;;;;7.92;nan;100416.22;2098357;28;20204;-75
2023/10/16 03:57:26;;;;;;;1.77;0.77;;;;;;;7.90;nan;100405.75;2098642;28;20025;-75
2023/10/16 03:58:33;;;;;;;1.63;0.60;;;;;;;7.89;nan;100409.50;2098149;28;20025;-75
2023/10/16 03:59:38;;;;;;;3.80;0.60;;;;;;;7.85;nan;100403.09;2090621;28;20030;-75
2023/10/16 04:00:52;;;;;;;3.60;0.50;;;;;;;7.78;nan;100410.53;2080737;28;20045;-74
2023/10/16 04:01:54;;;;;;;2.40;0.45;;;;;;;7.78;nan;100413.22;2060896;28;20035;-74
2023/10/16 04:02:59;;;;;;;1.50;0.38;;;;;;;7.76;nan;100410.81;2073889;28;20026;-74
2023/10/16 04:04:03;;;;;;;1.20;0.60;;;;;;;7.78;nan;100414.00;2082049;28;20042;-74
2023/10/16 04:05:27;;;;;;;2.42;0.90;;;;;;;7.79;nan;100409.50;2073694;28;20038;-75
2023/10/16 04:06:30;;;;;;;3.67;0.90;;;;;;;7.74;nan;100407.59;2084957;28;20104;-75
2023/10/16 04:07:31;;;;;;;4.18;0.50;;;;;;;7.78;nan;100407.88;2089728;28;20365;-75
2023/10/16 04:08:35;;;;;;;5.85;0.82;;;;;;;7.82;nan;100408.97;2086671;28;20107;-76
2023/10/16 04:09:40;;;;;;;2.97;0.70;;;;;;;7.87;nan;100417.00;2089770;28;20111;-75
2023/10/16 04:10:47;;;;;;;1.23;0.40;;;;;;;7.88;nan;100415.91;2089078;28;20041;-77
2023/10/16 04:11:54;;;;;;;1.25;0.50;;;;;;;7.89;nan;100421.03;2082068;28;20113;-75
2023/10/16 04:12:57;;;;;;;1.52;0.40;;;;;;;7.90;nan;100421.81;2090387;28;20264;-75
2023/10/16 04:13:59;;;;;;;3.08;0.80;;;;;;;7.89;nan;100415.66;2097979;28;20068;-75
2023/10/16 04:15:14;;;;;;;1.58;0.73;;;;;;;7.93;nan;100426.66;2081271;28;20038;-76
2023/10/16 04:16:35;;;;;;;2.42;0.55;;;;;;;7.96;nan;100425.31;2091688;28;20237;-77
2023/10/16 04:17:39;;;;;;;2.03;0.60;;;;;;;7.96;nan;100423.44;2100626;28;20257;-76
2023/10/16 04:18:41;;;;;;;1.65;0.50;;;;;;;7.97;nan;100425.03;2097933;28;20138;-76
2023/10/16 04:20:42;;;;;;;1.75;0.40;;;;;;;7.94;nan;100422.09;2081823;28;20041;-76
2023/10/16 04:21:40;;;;;;;4.10;0.70;;;;;;;7.91;nan;100423.41;2078029;28;20848;-76
2023/10/16 04:22:49;;;;;;;2.20;0.30;;;;;;;7.89;nan;100423.69;2077852;28;20959;-76
2023/10/16 04:23:54;;;;;;;2.53;0.35;;;;;;;7.89;nan;100420.22;2086259;28;20053;-76
2023/10/16 04:24:59;;;;;;;3.10;0.60;;;;;;;7.85;nan;100424.50;2073885;28;20030;-75
2023/10/16 04:28:29;;;;;;;2.38;0.47;;;;;;;7.81;nan;100418.84;2089485;28;20947;-80
2023/10/16 04:29:45;;;;;;;2.28;0.50;;;;;;;7.84;nan;100423.66;2080080;28;20045;-76
2023/10/16 04:30:52;;;;;;;1.80;0.60;;;;;;;7.83;nan;100426.63;2077198;28;20149;-79
2023/10/16 04:33:16;;;;;;;1.73;0.88;;;;;;;7.89;nan;100422.91;2073203;28;20035;-77
2023/10/16 04:36:52;;;;;;;2.08;0.40;;;;;;;7.94;nan;100395.31;2098385;28;20009;-81
2023/10/16 04:38:27;;;;;;;1.63;0.80;;;;;;;7.97;nan;100395.59;2089605;28;20062;-80
2023/10/16 04:43:37;;;;;;;2.92;0.47;;;;;;;7.92;nan;100403.63;2080001;28;20967;-82
2023/10/16 04:46:23;;;;;;;1.27;0.50;;;;;;;7.90;nan;100395.84;2067243;28;20046;-79
2023/10/16 04:47:41;;;;;;;1.85;0.40;;;;;;;7.90;nan;100390.50;2079405;28;20122;-83
2023/10/16 04:48:50;;;;;;;4.05;0.40;;;;;;;7.81;nan;100397.44;2095417;28;20032;-81
2023/10/16 04:50:09;;;;;;;2.47;0.68;;;;;;;7.79;nan;100398.78;2099912;28;20025;-81
2023/10/16 04:51:16;;;;;;;3.28;0.50;;;;;;;7.71;nan;100383.22;2093481;28;20017;-82
2023/10/16 04:53:06;;;;;;;1.50;0.47;;;;;;;7.63;nan;100382.69;2099512;28;20876;-83
2023/10/16 04:53:48;;;;;;;2.17;0.82;;;;;;;7.57;nan;100365.00;2094069;28;20033;-79
2023/10/16 04:54:59;;;;;;;5.45;0.82;;;;;;;7.55;nan;100375.16;2092192;28;20029;-80
2023/10/16 04:56:16;;;;;;;3.40;0.63;;;;;;;7.46;nan;100366.03;2099263;28;20114;-81
2023/10/16 04:59:37;;;;;;;2.85;0.88;;;;;;;7.35;nan;100372.41;2099318;28;20037;-81
2023/10/16 05:00:57;;;;;;;1.10;0.50;;;;;;;7.29;nan;100365.44;2091541;28;20033;-82
2023/10/16 05:02:16;;;;;;;4.10;0.70;;;;;;;7.23;nan;100366.47;2081744;28;20069;-81
2023/10/16 05:03:27;;;;;;;1.25;0.50;;;;;;;7.24;nan;100366.19;2081090;28;20797;-77
2023/10/16 05:04:59;;;;;;;2.28;0.47;;;;;;;7.26;nan;100361.41;2083243;28;20824;-79
2023/10/16 05:06:03;;;;;;;2.60;0.40;;;;;;;7.30;nan;100365.16;2094418;28;21306;-79
2023/10/16 05:07:16;;;;;;;2.15;0.60;;;;;;;7.31;nan;100361.41;2089881;28;20092;-82
2023/10/16 05:08:38;;;;;;;2.33;0.40;;;;;;;7.36;nan;100357.97;2084977;28;20155;-83
2023/10/16 05:13:55;;;;;;;1.30;0.40;;;;;;;7.38;nan;100351.28;2085147;28;20033;-85
2023/10/16 05:16:38;;;;;;;3.22;0.63;;;;;;;7.53;nan;100379.16;2079243;28;20030;-85
2023/10/16 06:14:16;;;;;;;4.72;2.05;;;;;;;7.92;nan;100480.47;2082389;28;20750;-79
2023/10/16 06:15:21;;;;;;;6.07;1.75;;;;;;;7.94;nan;100484.47;2078243;28;20139;-79
2023/10/16 06:16:23;;;;;;;3.63;1.58;;;;;;;7.90;nan;100484.19;2076325;28;20860;-79
2023/10/16 06:17:24;;;;;;;3.30;1.40;;;;;;;7.88;nan;100489.03;2082400;28;20037;-78
2023/10/16 06:18:30;;;;;;;5.35;1.88;;;;;;;7.90;nan;100491.41;2098607;28;20021;-79
2023/10/16 06:19:32;;;;;;;4.18;1.42;;;;;;;7.91;nan;100495.69;2098703;28;20049;-79
2023/10/16 06:20:37;;;;;;;4.20;1.55;;;;;;;7.90;nan;100497.56;2073903;28;20046;-78
2023/10/16 06:21:39;;;;;;;2.55;1.17;;;;;;;7.92;nan;100500.00;2084117;28;20110;-78
2023/10/16 06:22:50;;;;;;;3.28;1.38;;;;;;;7.96;nan;100490.38;2090248;28;20116;-78
2023/10/16 06:23:51;;;;;;;3.88;1.20;;;;;;;8.03;nan;100490.13;2076810;28;20034;-78
2023/10/16 06:24:53;;;;;;;4.38;1.02;;;;;;;8.05;nan;100493.34;2073596;28;20845;-79
2023/10/16 06:26:02;;;;;;;4.55;1.02;;;;;;;8.07;nan;100492.03;2090152;28;20026;-79
2023/10/16 06:27:08;;;;;;;2.35;1.25;;;;;;;8.16;nan;100483.47;2082062;28;20030;-76
2023/10/16 06:28:11;;;;;;;4.55;0.88;;;;;;;8.19;nan;100485.63;2084359;28;20128;-79
2023/10/16 06:29:12;;;;;;;5.72;1.30;;;;;;;8.22;nan;100482.41;2089585;28;20025;-76
2023/10/16 06:30:18;;;;;;;2.75;0.88;;;;;;;8.24;nan;100477.59;2090667;28;20737;-79
2023/10/16 06:31:24;;;;;;;2.97;0.98;;;;;;;8.26;nan;100476.28;2082963;28;20022;-76
2023/10/16 06:32:35;;;;;;;5.95;1.25;;;;;;;8.26;nan;100480.81;2082296;28;20038;-76
2023/10/16 06:33:41;;;;;;;9.18;1.35;;;;;;;8.24;nan;100482.97;2089942;28;20230;-76
2023/10/16 06:34:42;;;;;;;2.00;1.10;;;;;;;8.25;nan;100480.00;2098336;28;20764;-79
2023/10/16 06:35:44;;;;;;;4.68;1.30;;;;;;;8.23;nan;100478.66;2081456;28;20050;-76
2023/10/16 06:36:47;;;;;;;11.45;3.40;;;;;;;8.24;nan;100474.94;2081976;28;20030;-78
2023/10/16 06:37:52;;;;;;;2.53;1.20;;;;;;;8.24;nan;100477.59;2098154;28;20072;-77
2023/10/16 06:38:53;;;;;;;3.60;0.80;;;;;;;8.23;nan;100478.66;2082461;28;20135;-78